Time;durP1;ratioP1;P1;durP2;ratioP2;P2;SDS_P1;SDS_P2;PMS_P1;PMS_P2;Temp;Humidity;BMP_temperature;BMP_pressure;BME280_temperature;BME280_humidity;BME280_pressure;Samples;Min_cycle;Max_cycle;Signal;HPM_P1;HPM_P2
2023/03/06 00:01:47;;;;;;;10.32;4.53;;;;;;;-1.32;100.00;99544.78;5031902;28;20522;-77
2023/03/06 00:04:13;;;;;;;9.50;4.10;;;;;;;-1.43;100.00;99542.19;5031517;28;20037;-77
2023/03/06 00:06:38;;;;;;;10.27;4.72;;;;;;;-1.47;100.00;99538.69;5013285;28;20029;-78
2023/03/06 00:09:03;;;;;;;13.30;5.03;;;;;;;-1.58;100.00;99535.28;5031041;28;20037;-76
2023/03/06 00:11:29;;;;;;;11.02;5.28;;;;;;;-1.71;100.00;99528.75;5030741;28;20455;-76
2023/03/06 00:13:54;;;;;;;12.77;6.05;;;;;;;-1.74;100.00;99540.78;5031139;28;20037;-76
2023/03/06 00:16:20;;;;;;;12.23;5.03;;;;;;;-1.76;100.00;99541.22;5029587;28;20506;-77
2023/03/06 00:18:46;;;;;;;13.05;5.55;;;;;;;-1.82;100.00;99534.53;5031037;28;20025;-77
2023/03/06 00:21:12;;;;;;;13.52;6.03;;;;;;;-1.88;100.00;99546.63;5013120;28;20434;-78
2023/03/06 00:23:38;;;;;;;11.93;4.97;;;;;;;-2.02;100.00;99531.69;5030831;28;20022;-76
2023/03/06 00:26:06;;;;;;;13.95;5.93;;;;;;;-1.98;100.00;99551.22;5030757;28;20108;-75
2023/03/06 00:28:31;;;;;;;12.90;6.03;;;;;;;-2.04;100.00;99539.69;5030875;28;20374;-76
2023/03/06 00:30:57;;;;;;;14.00;5.53;;;;;;;-2.10;100.00;99541.41;5031094;28;20048;-77
2023/03/06 00:33:22;;;;;;;10.52;6.05;;;;;;;-2.20;100.00;99531.19;5031199;28;20021;-76
2023/03/06 00:35:47;;;;;;;12.57;5.93;;;;;;;-2.18;100.00;99530.75;5032296;28;20112;-77
2023/03/06 00:38:13;;;;;;;10.63;5.22;;;;;;;-2.22;100.00;99530.84;5032854;28;20032;-77
2023/03/06 00:40:38;;;;;;;11.85;5.22;;;;;;;-2.22;100.00;99533.63;5032321;28;20097;-78
2023/03/06 00:43:04;;;;;;;11.80;5.47;;;;;;;-2.20;100.00;99533.97;5031390;28;20022;-77
2023/03/06 00:45:29;;;;;;;13.10;6.15;;;;;;;-2.20;100.00;99531.19;5032743;28;20032;-77
2023/03/06 00:47:54;;;;;;;12.70;5.53;;;;;;;-2.17;100.00;99532.34;5032883;28;20441;-79
2023/03/06 00:50:20;;;;;;;11.10;5.18;;;;;;;-2.21;100.00;99510.03;5032805;28;20028;-78
2023/03/06 00:52:45;;;;;;;9.95;5.20;;;;;;;-2.03;100.00;99530.09;5031143;28;20022;-78
2023/03/06 00:55:11;;;;;;;14.82;6.47;;;;;;;-2.03;100.00;99493.72;5031299;28;20024;-77
2023/03/06 00:57:36;;;;;;;14.27;5.82;;;;;;;-1.71;100.00;99509.13;5032535;28;20480;-77
2023/03/06 01:00:03;;;;;;;10.95;5.80;;;;;;;-1.67;100.00;99507.06;5032637;28;20029;-77
2023/03/06 01:02:28;;;;;;;8.13;4.72;;;;;;;-1.67;100.00;99501.47;5033245;28;20028;-77
2023/03/06 01:04:54;;;;;;;16.30;6.63;;;;;;;-1.64;100.00;99504.19;5019047;28;20022;-77
2023/03/06 01:07:19;;;;;;;12.55;6.75;;;;;;;-1.65;100.00;99497.00;5036658;28;20033;-78
2023/03/06 01:09:44;;;;;;;13.85;6.75;;;;;;;-1.60;100.00;99501.31;5035168;28;20071;-77
2023/03/06 01:12:10;;;;;;;11.63;6.97;;;;;;;-1.58;100.00;99494.06;5036059;28;20013;-76
2023/03/06 01:14:35;;;;;;;14.15;7.00;;;;;;;-1.62;100.00;99470.94;5036538;28;20029;-77
2023/03/06 01:17:01;;;;;;;12.50;6.65;;;;;;;-1.50;100.00;99479.91;5036433;28;20112;-78
2023/03/06 01:19:26;;;;;;;12.75;5.93;;;;;;;-1.42;100.00;99489.75;5034998;28;20108;-77
2023/03/06 01:21:51;;;;;;;11.63;6.18;;;;;;;-1.62;100.00;99451.34;5034939;28;20037;-77
2023/03/06 01:24:17;;;;;;;12.75;7.07;;;;;;;-1.34;100.00;99482.78;5036490;28;20028;-78
2023/03/06 01:26:42;;;;;;;14.82;6.72;;;;;;;-1.30;100.00;99483.47;5036949;28;20361;-77
2023/03/06 01:29:08;;;;;;;20.92;6.35;;;;;;;-1.35;100.00;99465.16;5034941;28;20453;-77
2023/03/06 01:31:33;;;;;;;12.65;6.43;;;;;;;-1.22;100.00;99474.50;5034912;28;20029;-77
2023/03/06 01:33:59;;;;;;;11.75;6.40;;;;;;;-1.18;100.00;99468.81;5018284;28;20080;-76
2023/03/06 01:36:25;;;;;;;10.55;6.32;;;;;;;-1.11;100.00;99462.28;5036306;28;20036;-77
2023/03/06 01:38:50;;;;;;;11.23;6.05;;;;;;;-1.10;100.00;99450.63;5036403;28;20021;-77
2023/03/06 01:41:16;;;;;;;11.38;5.95;;;;;;;-0.99;100.00;99459.59;5035769;28;20360;-76
2023/03/06 01:43:43;;;;;;;10.05;5.25;;;;;;;-0.93;100.00;99460.66;5035763;28;20037;-77
2023/03/06 01:46:25;;;;;;;8.85;4.88;;;;;;;-0.86;100.00;99457.66;5035835;28;20082;-76
2023/03/06 01:48:56;;;;;;;11.05;5.47;;;;;;;-0.82;100.00;99452.78;5035592;28;20025;-76
2023/03/06 01:51:26;;;;;;;13.10;5.18;;;;;;;-0.79;100.00;99456.72;5036201;28;20060;-77
2023/03/06 01:53:52;;;;;;;11.70;5.50;;;;;;;-0.76;100.00;99448.22;5034319;28;20041;-76
2023/03/06 01:56:18;;;;;;;14.32;7.05;;;;;;;-0.72;100.00;99459.38;5035766;28;20378;-77
2023/03/06 01:58:43;;;;;;;14.13;5.90;;;;;;;-0.80;100.00;99438.31;5035390;28;20487;-77
2023/03/06 02:01:10;;;;;;;12.65;6.30;;;;;;;-0.66;100.00;99451.19;5035320;28;20396;-78
2023/03/06 02:03:37;;;;;;;14.70;7.20;;;;;;;-0.66;100.00;99445.59;5033914;28;20360;-77
2023/03/06 02:06:03;;;;;;;13.55;6.65;;;;;;;-0.61;100.00;99445.84;5032250;28;20033;-76
2023/03/06 02:08:29;;;;;;;15.38;6.85;;;;;;;-0.64;100.00;99434.72;5033407;28;20425;-77
2023/03/06 02:11:07;;;;;;;12.27;6.82;;;;;;;-0.62;100.00;99432.28;5033143;28;20022;-77
2023/03/06 02:13:33;;;;;;;13.27;7.13;;;;;;;-0.56;100.00;99434.13;5031499;28;20136;-78
2023/03/06 02:15:59;;;;;;;14.25;7.72;;;;;;;-0.58;100.00;99430.19;5032079;28;20072;-76
2023/03/06 02:18:24;;;;;;;14.35;7.97;;;;;;;-0.59;100.00;99426.59;5032549;28;20045;-77
2023/03/06 02:20:56;;;;;;;12.98;7.28;;;;;;;-0.50;100.00;99431.56;5032200;28;20072;-77
2023/03/06 02:23:43;;;;;;;15.45;7.22;;;;;;;-0.51;100.00;99432.78;5015237;28;20133;-76
2023/03/06 02:26:09;;;;;;;15.43;7.78;;;;;;;-0.49;100.00;99427.53;5031566;28;20519;-77
2023/03/06 02:28:34;;;;;;;18.17;8.45;;;;;;;-0.46;100.00;99429.47;5031609;28;20053;-77
2023/03/06 02:31:00;;;;;;;14.20;8.20;;;;;;;-0.41;100.00;99424.09;5031715;28;20033;-77
2023/03/06 02:33:27;;;;;;;16.75;8.88;;;;;;;-0.36;100.00;99417.97;5031521;28;20159;-76
2023/03/06 02:36:01;;;;;;;12.40;7.47;;;;;;;-0.42;100.00;99408.50;5033496;28;20057;-76
2023/03/06 02:38:31;;;;;;;20.27;9.77;;;;;;;-0.35;100.00;99410.34;5034532;28;20029;-77
2023/03/06 02:40:56;;;;;;;18.30;9.48;;;;;;;-0.36;100.00;99408.75;5033120;28;20046;-77
2023/03/06 02:43:24;;;;;;;21.27;9.48;;;;;;;-0.40;100.00;99399.66;5033425;28;20048;-76
2023/03/06 02:45:50;;;;;;;21.65;10.18;;;;;;;-0.37;100.00;99396.75;5034447;28;20037;-77
2023/03/06 02:48:17;;;;;;;19.58;9.18;;;;;;;-0.39;100.00;99393.59;5034901;28;20033;-78
2023/03/06 02:50:43;;;;;;;16.13;8.98;;;;;;;-0.42;100.00;99388.84;5016720;28;20124;-78
2023/03/06 02:53:10;;;;;;;18.52;8.32;;;;;;;-0.43;100.00;99387.31;5034550;28;20037;-78
2023/03/06 02:55:35;;;;;;;16.23;8.07;;;;;;;-0.45;100.00;99381.31;5034854;28;20036;-77
2023/03/06 02:58:01;;;;;;;16.02;8.25;;;;;;;-0.37;100.00;99390.34;5034548;28;20037;-77
2023/03/06 03:00:27;;;;;;;21.45;8.75;;;;;;;-0.45;100.00;99364.50;5034708;28;20113;-77
2023/03/06 03:02:52;;;;;;;21.20;9.10;;;;;;;-0.44;100.00;99371.69;5034516;28;20040;-77
2023/03/06 03:05:17;;;;;;;16.50;9.00;;;;;;;-0.41;100.00;99370.00;5034405;28;20445;-78
2023/03/06 03:07:43;;;;;;;17.02;9.15;;;;;;;-0.38;100.00;99366.34;5034428;28;20025;-77
2023/03/06 03:10:10;;;;;;;19.77;8.85;;;;;;;-0.50;100.00;99345.38;5034288;28;20083;-77
2023/03/06 03:12:35;;;;;;;17.55;9.18;;;;;;;-0.36;100.00;99361.84;5033004;28;20026;-77
2023/03/06 03:15:00;;;;;;;18.15;8.77;;;;;;;-0.41;100.00;99358.78;5033956;28;20108;-78
2023/03/06 03:17:26;;;;;;;15.82;9.13;;;;;;;-0.35;100.00;99360.63;5033271;28;20033;-77
2023/03/06 03:19:51;;;;;;;21.48;9.75;;;;;;;-0.33;100.00;99365.78;5033012;28;20036;-77
2023/03/06 03:22:17;;;;;;;18.50;8.27;;;;;;;-0.32;100.00;99362.53;5034239;28;20490;-78
2023/03/06 03:24:43;;;;;;;16.38;8.77;;;;;;;-0.27;100.00;99359.19;5033344;28;20550;-78
2023/03/06 03:27:09;;;;;;;15.25;8.63;;;;;;;-0.23;100.00;99355.50;5033909;28;20391;-77
2023/03/06 03:29:34;;;;;;;18.35;8.90;;;;;;;-0.24;100.00;99348.31;5033708;28;20489;-77
2023/03/06 03:31:59;;;;;;;17.48;9.02;;;;;;;-0.24;100.00;99342.69;5034125;28;20025;-77
2023/03/06 03:34:25;;;;;;;19.42;9.25;;;;;;;-0.35;100.00;99337.38;5032408;28;20029;-77
2023/03/06 03:36:50;;;;;;;18.38;10.27;;;;;;;-0.24;100.00;99349.09;5034078;28;20031;-77
2023/03/06 03:39:16;;;;;;;19.27;9.50;;;;;;;-0.21;100.00;99348.22;5034033;28;20067;-77
2023/03/06 03:41:41;;;;;;;17.25;9.15;;;;;;;-0.18;100.00;99341.72;5033313;28;20544;-78
2023/03/06 03:44:07;;;;;;;21.05;9.80;;;;;;;-0.25;100.00;99327.88;5032117;28;20151;-76
2023/03/06 03:46:32;;;;;;;17.67;9.40;;;;;;;-0.16;100.00;99341.25;5032538;28;20025;-78
2023/03/06 03:48:58;;;;;;;16.13;9.10;;;;;;;-0.23;100.00;99330.25;5032260;28;20463;-79
2023/03/06 03:51:23;;;;;;;17.42;8.95;;;;;;;-0.24;100.00;99329.47;5033937;28;20045;-82
2023/03/06 03:53:49;;;;;;;24.10;10.30;;;;;;;-0.26;100.00;99315.84;5032577;28;20025;-81
2023/03/06 03:56:14;;;;;;;17.85;10.18;;;;;;;-0.18;100.00;99332.53;5033557;28;20108;-81
2023/03/06 03:58:40;;;;;;;20.95;10.52;;;;;;;-0.15;100.00;99328.81;5031970;28;20072;-81
2023/03/06 04:01:05;;;;;;;22.08;10.57;;;;;;;-0.14;100.00;99319.16;5034005;28;20116;-81
2023/03/06 04:03:31;;;;;;;21.77;10.18;;;;;;;-0.44;100.00;99279.09;5032485;28;20493;-81
2023/03/06 04:05:57;;;;;;;21.30;10.65;;;;;;;-0.19;100.00;99316.91;5044434;28;20033;-80
2023/03/06 04:08:23;;;;;;;24.30;11.82;;;;;;;-0.21;100.00;99308.91;5043997;28;20033;-82
2023/03/06 04:10:53;;;;;;;27.40;14.00;;;;;;;-0.18;100.00;99318.47;5034463;28;20036;-81
2023/03/06 04:13:20;;;;;;;32.42;16.45;;;;;;;-0.18;100.00;99310.06;5032479;28;20052;-79
2023/03/06 04:15:47;;;;;;;37.72;18.98;;;;;;;-0.17;100.00;99303.19;5033802;28;20029;-81
2023/03/06 04:18:15;;;;;;;44.50;22.27;;;;;;;-0.16;100.00;99311.19;5033481;28;20033;-82
2023/03/06 04:20:40;;;;;;;44.67;19.58;;;;;;;-0.19;100.00;99303.66;5033225;28;20031;-82
2023/03/06 04:23:06;;;;;;;43.53;20.17;;;;;;;-0.17;100.00;99300.38;5034878;28;20112;-81
2023/03/06 04:25:31;;;;;;;33.10;18.23;;;;;;;-0.16;100.00;99297.13;5034805;28;20021;-81
2023/03/06 04:27:57;;;;;;;32.38;17.02;;;;;;;-0.14;100.00;99296.72;5033761;28;20459;-82
2023/03/06 04:30:23;;;;;;;32.53;16.00;;;;;;;-0.19;100.00;99284.00;5033212;28;20029;-83
2023/03/06 04:32:49;;;;;;;30.02;15.13;;;;;;;-0.15;100.00;99298.72;5031700;28;20037;-83
2023/03/06 04:35:15;;;;;;;28.92;14.75;;;;;;;-0.14;100.00;99285.47;5015189;28;20463;-83
2023/03/06 04:37:40;;;;;;;28.88;15.40;;;;;;;-0.15;100.00;99289.50;5032801;28;20155;-83
2023/03/06 04:40:08;;;;;;;28.70;14.23;;;;;;;-0.09;100.00;99290.53;5034500;28;20033;-83
2023/03/06 04:42:33;;;;;;;28.80;13.45;;;;;;;-0.09;100.00;99276.50;5034644;28;20031;-82
2023/03/06 04:44:59;;;;;;;24.55;13.63;;;;;;;-0.11;100.00;99290.97;5033205;28;20112;-83
2023/03/06 04:47:24;;;;;;;27.88;14.20;;;;;;;-0.01;100.00;99277.88;5032920;28;20521;-82
2023/03/06 04:49:50;;;;;;;25.95;13.95;;;;;;;-0.02;100.00;99279.09;5033210;28;20079;-83
2023/03/06 04:52:15;;;;;;;26.73;12.05;;;;;;;-0.05;100.00;99272.34;5031668;28;20112;-83
2023/03/06 04:54:41;;;;;;;24.13;12.80;;;;;;;0.01;100.00;99284.63;5032878;28;20029;-83
2023/03/06 04:57:07;;;;;;;23.70;12.00;;;;;;;-0.06;100.00;99273.59;5032434;28;20025;-83
2023/03/06 04:59:34;;;;;;;24.95;14.10;;;;;;;-0.09;100.00;99279.31;5015185;28;20053;-82
2023/03/06 05:02:01;;;;;;;24.42;12.60;;;;;;;-0.08;100.00;99278.88;5032929;28;20480;-83
2023/03/06 05:04:27;;;;;;;26.23;14.00;;;;;;;-0.04;100.00;99279.56;5032860;28;20083;-83
2023/03/06 05:06:54;;;;;;;24.55;12.73;;;;;;;-0.08;100.00;99276.06;5014817;28;20025;-83
2023/03/06 05:09:21;;;;;;;21.50;11.77;;;;;;;-0.05;100.00;99271.56;5033459;28;20390;-82
2023/03/06 05:11:48;;;;;;;25.23;11.93;;;;;;;0.00;100.00;99271.81;5034864;28;20028;-82
2023/03/06 05:14:13;;;;;;;24.50;12.75;;;;;;;0.00;100.00;99269.00;5031426;28;20045;-82
2023/03/06 05:16:40;;;;;;;19.67;10.57;;;;;;;0.10;100.00;99275.53;5032922;28;20030;-82
2023/03/06 05:19:07;;;;;;;23.27;11.88;;;;;;;0.09;100.00;99271.94;5013863;28;20048;-81
2023/03/06 05:21:33;;;;;;;22.67;11.43;;;;;;;0.15;100.00;99272.97;5032593;28;20029;-82
2023/03/06 05:23:58;;;;;;;22.77;11.50;;;;;;;0.15;100.00;99269.34;5033036;28;20455;-83
2023/03/06 05:26:24;;;;;;;23.92;11.57;;;;;;;0.18;100.00;99272.06;5032785;28;20079;-83
2023/03/06 05:28:50;;;;;;;17.63;9.32;;;;;;;0.23;100.00;99272.72;5032911;28;20025;-84
2023/03/06 05:31:20;;;;;;;18.63;9.02;;;;;;;0.29;100.00;99273.75;5031245;28;20371;-82
2023/03/06 05:33:46;;;;;;;23.75;12.90;;;;;;;0.30;100.00;99280.94;5032569;28;20142;-83
2023/03/06 05:36:11;;;;;;;22.15;11.55;;;;;;;0.31;100.00;99266.47;5032460;28;20056;-80
2023/03/06 05:38:37;;;;;;;20.17;9.73;;;;;;;0.30;100.00;99255.66;5032393;28;20056;-80
2023/03/06 05:41:04;;;;;;;21.90;10.82;;;;;;;0.32;100.00;99253.97;5013751;28;20045;-81
2023/03/06 05:43:32;;;;;;;20.23;9.98;;;;;;;0.46;100.00;99261.97;5030962;28;20079;-80
2023/03/06 05:46:09;;;;;;;19.33;9.43;;;;;;;0.63;100.00;99259.81;5032129;28;20029;-82
2023/03/06 05:48:36;;;;;;;14.20;8.35;;;;;;;0.60;100.00;99250.28;5032352;28;20029;-80
2023/03/06 05:51:10;;;;;;;20.38;10.52;;;;;;;0.79;100.00;99262.50;5054208;28;20482;-80
2023/03/06 05:53:36;;;;;;;20.50;10.15;;;;;;;0.81;100.00;99264.88;5054400;28;20037;-80
2023/03/06 05:56:09;;;;;;;17.75;9.65;;;;;;;0.89;100.00;99254.94;5055935;28;20478;-83
2023/03/06 05:58:35;;;;;;;19.45;10.45;;;;;;;0.91;100.00;99258.09;5054724;28;20025;-81
2023/03/06 06:01:24;;;;;;;18.83;9.85;;;;;;;0.93;100.00;99244.38;5054802;28;20425;-79
2023/03/06 06:03:50;;;;;;;16.83;10.07;;;;;;;0.93;100.00;99252.81;5055239;28;20082;-89
2023/03/06 06:06:17;;;;;;;19.40;9.90;;;;;;;1.12;100.00;99265.00;5055704;28;20021;-76
2023/03/06 06:08:43;;;;;;;16.42;9.20;;;;;;;1.12;100.00;99248.94;5054413;28;20167;-75
2023/03/06 06:11:10;;;;;;;17.17;9.60;;;;;;;1.12;100.00;99250.94;5054197;28;20462;-79
2023/03/06 06:13:37;;;;;;;15.85;9.02;;;;;;;1.17;100.00;99258.81;5024467;28;20094;-85
2023/03/06 06:16:10;;;;;;;16.00;9.73;;;;;;;1.26;100.00;99254.06;5042265;28;20424;-76
2023/03/06 06:18:38;;;;;;;14.90;8.77;;;;;;;1.37;100.00;99262.13;5033896;28;20017;-77
2023/03/06 06:21:08;;;;;;;12.77;7.68;;;;;;;1.47;100.00;99253.31;5033090;28;20124;-80
2023/03/06 06:23:39;;;;;;;16.15;7.72;;;;;;;1.58;100.00;99260.59;5033178;28;20029;-78
2023/03/06 06:26:06;;;;;;;;;;;;;;;1.71;100.00;99264.13;5034728;28;20033;-80
2023/03/06 06:28:36;;;;;;;15.13;8.40;;;;;;;1.77;100.00;99265.91;5033045;28;20018;-80
2023/03/06 06:31:11;;;;;;;16.05;8.80;;;;;;;1.83;100.00;99258.44;5033622;28;20030;-81
2023/03/06 06:33:40;;;;;;;15.80;9.43;;;;;;;1.96;100.00;99268.81;5033107;28;20474;-80
2023/03/06 06:36:18;;;;;;;21.40;9.38;;;;;;;1.99;100.00;99265.09;5033336;28;20025;-81
2023/03/06 06:38:43;;;;;;;14.73;9.13;;;;;;;2.13;100.00;99264.56;5034327;28;20033;-80
2023/03/06 06:41:10;;;;;;;26.20;9.20;;;;;;;2.24;100.00;99276.22;5032379;28;20045;-80
2023/03/06 06:43:35;;;;;;;18.75;9.38;;;;;;;2.27;100.00;99270.44;5031614;28;20029;-79
2023/03/06 06:46:01;;;;;;;18.63;9.77;;;;;;;2.31;100.00;99261.84;5031651;28;20383;-78
2023/03/06 06:48:26;;;;;;;23.00;10.80;;;;;;;2.38;100.00;99270.03;5032952;28;20037;-78
2023/03/06 06:50:56;;;;;;;18.40;10.20;;;;;;;2.39;100.00;99271.56;5033297;28;20029;-78
2023/03/06 06:53:21;;;;;;;17.80;8.98;;;;;;;2.47;100.00;99280.56;5033071;28;20028;-79
2023/03/06 06:55:47;;;;;;;16.65;9.65;;;;;;;2.47;100.00;99266.47;5032574;28;20029;-79
2023/03/06 06:58:12;;;;;;;21.30;9.32;;;;;;;2.58;100.00;99275.28;5032861;28;20446;-78
2023/03/06 07:00:38;;;;;;;26.05;11.48;;;;;;;2.53;100.00;99265.41;5032458;28;20033;-77
2023/03/06 07:03:03;;;;;;;19.02;10.60;;;;;;;2.60;100.00;99276.38;5031278;28;20026;-77
2023/03/06 07:05:28;;;;;;;16.42;10.13;;;;;;;2.63;100.00;99269.81;5034426;28;20025;-79
2023/03/06 07:07:54;;;;;;;22.13;10.98;;;;;;;2.65;100.00;99269.34;5035289;28;20021;-79
2023/03/06 07:10:20;;;;;;;17.70;9.48;;;;;;;2.61;100.00;99272.31;5034185;28;20135;-79
2023/03/06 07:12:45;;;;;;;19.60;10.15;;;;;;;2.63;100.00;99267.00;5034911;28;20074;-77
2023/03/06 07:15:14;;;;;;;19.50;11.30;;;;;;;2.67;100.00;99267.66;5033410;28;20033;-78
2023/03/06 07:17:40;;;;;;;20.25;10.43;;;;;;;2.74;100.00;99272.19;5033026;28;20033;-76
2023/03/06 07:20:09;;;;;;;21.13;10.90;;;;;;;2.79;100.00;99275.19;5040565;28;20082;-79
2023/03/06 07:22:35;;;;;;;17.35;11.07;;;;;;;2.90;100.00;99274.75;5054654;28;20452;-77
2023/03/06 07:25:11;;;;;;;18.80;11.32;;;;;;;3.00;100.00;99267.88;5053911;28;20029;-79
2023/03/06 07:27:37;;;;;;;21.15;11.70;;;;;;;3.14;100.00;99272.94;5054124;28;20025;-79
2023/03/06 07:30:05;;;;;;;22.98;12.20;;;;;;;3.28;100.00;99273.59;5052567;28;20033;-84
2023/03/06 07:32:33;;;;;;;19.83;10.88;;;;;;;3.43;100.00;99275.31;5053557;28;20068;-81
2023/03/06 07:34:59;;;;;;;20.90;12.38;;;;;;;3.58;100.00;99269.84;5054361;28;20073;-79
2023/03/06 07:37:26;;;;;;;18.45;11.80;;;;;;;3.78;100.00;99264.50;5052527;28;20081;-79
2023/03/06 07:39:52;;;;;;;20.05;12.25;;;;;;;3.98;100.00;99272.50;5053943;28;20025;-78
2023/03/06 07:42:17;;;;;;;18.30;12.45;;;;;;;4.15;100.00;99275.78;5053667;28;20045;-80
2023/03/06 07:44:44;;;;;;;15.88;10.95;;;;;;;4.34;100.00;99269.63;5054086;28;20025;-81
2023/03/06 07:47:11;;;;;;;17.20;10.82;;;;;;;4.48;100.00;99256.84;5053840;28;20095;-80
2023/03/06 07:49:38;;;;;;;18.15;11.38;;;;;;;4.86;100.00;99268.31;5053929;28;20064;-78
2023/03/06 07:52:04;;;;;;;18.10;11.35;;;;;;;5.13;100.00;99270.22;5052907;28;20033;-79
2023/03/06 07:54:34;;;;;;;19.65;10.75;;;;;;;5.40;100.00;99272.06;5053471;28;20040;-79
2023/03/06 07:56:59;;;;;;;18.70;10.88;;;;;;;5.67;100.00;99271.09;5053829;28;20033;-79
2023/03/06 07:59:24;;;;;;;17.65;11.52;;;;;;;5.81;100.00;99254.13;5035664;28;20118;-79
2023/03/06 08:01:50;;;;;;;18.80;11.57;;;;;;;6.18;100.00;99267.94;5052440;28;20493;-81
2023/03/06 08:04:15;;;;;;;16.42;11.20;;;;;;;6.54;100.00;99270.41;5053397;28;20021;-79
2023/03/06 08:06:41;;;;;;;20.38;11.77;;;;;;;6.95;100.00;99274.16;5052064;28;20385;-83
2023/03/06 08:09:07;;;;;;;19.60;12.00;;;;;;;7.28;100.00;99265.31;5053520;28;20036;-83
2023/03/06 08:11:32;;;;;;;17.95;12.23;;;;;;;7.65;100.00;99284.69;5052086;28;20055;-83
2023/03/06 08:13:59;;;;;;;20.63;12.32;;;;;;;7.81;100.00;99284.91;5053740;28;20024;-80
2023/03/06 08:16:27;;;;;;;17.50;11.05;;;;;;;7.77;100.00;99278.63;5053776;28;20056;-82
2023/03/06 08:18:54;;;;;;;28.90;12.15;;;;;;;7.62;98.53;99280.75;5052717;28;20128;-85
2023/03/06 08:21:25;;;;;;;22.00;13.93;;;;;;;7.44;99.97;99278.19;5053934;28;20043;-82
2023/03/06 08:23:52;;;;;;;20.83;12.75;;;;;;;7.42;100.00;99269.41;5053657;28;20119;-81
2023/03/06 08:26:28;;;;;;;27.60;14.45;;;;;;;7.37;100.00;99268.03;5018916;28;20039;-80
2023/03/06 08:28:57;;;;;;;19.25;11.63;;;;;;;7.43;100.00;99266.06;5052815;28;20029;-80
2023/03/06 08:31:37;;;;;;;21.30;12.25;;;;;;;7.43;98.87;99270.94;5059076;28;20036;-81
2023/03/06 08:34:20;;;;;;;17.80;12.55;;;;;;;7.54;99.79;99274.72;5053642;28;20381;-82
2023/03/06 08:36:46;;;;;;;18.27;11.90;;;;;;;7.65;99.14;99276.16;5053411;28;20048;-81
2023/03/06 08:39:12;;;;;;;16.35;10.85;;;;;;;7.74;100.00;99268.25;5052517;28;20021;-81
2023/03/06 08:41:40;;;;;;;16.48;11.20;;;;;;;7.98;99.00;99279.38;5052964;28;20047;-83
2023/03/06 08:44:06;;;;;;;20.42;11.50;;;;;;;8.12;95.61;99280.56;5051356;28;20091;-83
2023/03/06 08:46:32;;;;;;;20.95;12.45;;;;;;;8.17;95.07;99286.34;5053012;28;20390;-82
2023/03/06 08:48:58;;;;;;;16.70;11.43;;;;;;;8.16;93.26;99287.63;5052112;28;20466;-82
2023/03/06 08:51:28;;;;;;;16.92;11.65;;;;;;;8.09;91.95;99299.44;5035517;28;20036;-82
2023/03/06 08:53:55;;;;;;;17.67;12.63;;;;;;;7.98;91.07;99293.59;5052130;28;20043;-82
2023/03/06 08:56:41;;;;;;;20.85;12.25;;;;;;;7.91;90.41;99291.22;5053541;28;20049;-81
2023/03/06 08:59:10;;;;;;;19.23;13.07;;;;;;;7.73;89.32;99300.03;5047505;28;20044;-80
2023/03/06 09:01:37;;;;;;;17.75;12.38;;;;;;;7.43;90.11;99257.53;5051840;28;20045;-83
2023/03/06 09:04:12;;;;;;;16.20;11.38;;;;;;;7.57;89.69;99275.03;5052020;28;20036;-81
2023/03/06 09:06:41;;;;;;;17.15;11.43;;;;;;;7.67;88.56;99284.97;5052784;28;20052;-83
2023/03/06 09:09:11;;;;;;;18.10;11.25;;;;;;;7.80;88.11;99286.16;5051214;28;20037;-83
2023/03/06 09:11:38;;;;;;;20.20;11.65;;;;;;;7.94;87.49;99281.66;5051693;28;20086;-82
2023/03/06 09:14:08;;;;;;;16.75;10.48;;;;;;;8.19;86.35;99286.63;5051575;28;20087;-81
2023/03/06 09:16:36;;;;;;;18.42;10.82;;;;;;;8.36;83.97;99290.41;5035138;28;20036;-80
2023/03/06 09:19:02;;;;;;;17.05;10.70;;;;;;;8.50;83.90;99287.97;5052798;28;20449;-81
2023/03/06 09:21:28;;;;;;;16.83;10.77;;;;;;;8.61;84.86;99288.06;5051510;28;20041;-82
2023/03/06 09:23:54;;;;;;;20.58;11.70;;;;;;;8.79;85.53;99288.50;5055290;28;20474;-82
2023/03/06 09:26:19;;;;;;;14.43;10.15;;;;;;;8.96;83.29;99279.28;5055162;28;20040;-82
2023/03/06 09:28:45;;;;;;;12.73;9.73;;;;;;;9.07;82.15;99285.84;5056992;28;20107;-83
2023/03/06 09:31:14;;;;;;;17.92;10.75;;;;;;;9.08;80.17;99298.81;5022377;28;20087;-84
2023/03/06 09:33:41;;;;;;;15.13;10.85;;;;;;;8.93;80.53;99272.53;5055970;28;20474;-83
2023/03/06 09:36:07;;;;;;;15.27;9.60;;;;;;;8.96;79.01;99268.66;5056724;28;20044;-83
2023/03/06 09:38:34;;;;;;;14.55;10.38;;;;;;;9.02;77.70;99282.94;5056005;28;20020;-84
2023/03/06 09:41:12;;;;;;;14.82;10.60;;;;;;;9.03;76.11;99295.91;5055142;28;20052;-85
2023/03/06 09:43:39;;;;;;;15.07;9.95;;;;;;;8.87;78.02;99279.47;5038872;28;20048;-83
2023/03/06 09:46:24;;;;;;;12.45;10.32;;;;;;;8.99;78.41;99290.47;5038616;28;20040;-83
2023/03/06 09:48:54;;;;;;;17.50;9.52;;;;;;;9.03;78.42;99282.44;5056367;28;20035;-79
2023/03/06 09:51:32;;;;;;;15.50;10.52;;;;;;;9.11;79.72;99279.91;5058310;28;20025;-82
2023/03/06 09:54:11;;;;;;;17.50;9.75;;;;;;;9.21;76.19;99290.59;5055551;28;20024;-80
2023/03/06 09:56:40;;;;;;;17.02;9.20;;;;;;;9.22;78.84;99277.91;5056447;28;20382;-83
2023/03/06 09:59:13;;;;;;;14.63;9.80;;;;;;;9.39;79.97;99277.25;5056728;28;20021;-85
2023/03/06 10:01:41;;;;;;;14.68;8.90;;;;;;;9.47;77.46;99284.78;5038694;28;20120;-85
2023/03/06 10:04:11;;;;;;;12.50;8.15;;;;;;;9.52;76.56;99281.19;5054842;28;20029;-81
2023/03/06 10:06:48;;;;;;;10.85;8.48;;;;;;;9.56;75.04;99280.94;5054529;28;20032;-82
2023/03/06 10:09:40;;;;;;;11.98;8.10;;;;;;;9.55;74.97;99271.59;5052169;28;20561;-78
2023/03/06 10:12:20;;;;;;;11.13;7.50;;;;;;;9.63;74.17;99281.25;5052154;28;20045;-81
2023/03/06 10:14:56;;;;;;;13.48;8.10;;;;;;;9.70;74.16;99279.97;5053367;28;20107;-80
2023/03/06 10:17:22;;;;;;;10.48;8.20;;;;;;;9.82;72.64;99275.13;5052197;28;20032;-80
2023/03/06 10:19:48;;;;;;;14.18;8.10;;;;;;;9.83;70.77;99268.91;5035124;28;20075;-82
2023/03/06 10:22:29;;;;;;;12.55;8.27;;;;;;;9.76;71.44;99263.69;5052873;28;20075;-81
2023/03/06 10:25:03;;;;;;;14.07;8.55;;;;;;;9.70;72.92;99254.28;5055463;28;20025;-81
2023/03/06 10:27:57;;;;;;;13.45;8.50;;;;;;;9.71;73.50;99247.28;5054338;28;20036;-82
2023/03/06 10:30:26;;;;;;;12.32;9.23;;;;;;;9.82;75.42;99253.09;5021352;28;20025;-82
2023/03/06 10:32:59;;;;;;;15.00;10.00;;;;;;;9.83;73.76;99248.94;5055285;28;20037;-82
2023/03/06 10:35:43;;;;;;;15.45;10.32;;;;;;;9.85;72.68;99257.75;5053716;28;20084;-82
2023/03/06 10:38:29;;;;;;;16.17;10.75;;;;;;;9.69;72.19;99253.50;5053774;28;20524;-83
2023/03/06 10:40:57;;;;;;;14.73;10.18;;;;;;;9.68;73.00;99240.56;5053745;28;20044;-82
2023/03/06 10:43:23;;;;;;;16.75;9.55;;;;;;;9.65;74.33;99240.78;5055222;28;20098;-81
2023/03/06 10:45:50;;;;;;;15.13;10.02;;;;;;;9.68;72.41;99239.78;5053825;28;20036;-82
2023/03/06 10:48:22;;;;;;;15.00;10.07;;;;;;;9.69;74.51;99227.09;5053781;28;20028;-81
2023/03/06 10:50:47;;;;;;;14.93;9.50;;;;;;;9.72;74.29;99230.97;5055515;28;20029;-81
2023/03/06 10:53:25;;;;;;;11.75;8.50;;;;;;;9.79;73.49;99231.25;5059671;28;20032;-81
2023/03/06 10:55:54;;;;;;;12.68;8.80;;;;;;;9.84;68.49;99244.78;5062442;28;20052;-82
2023/03/06 10:58:25;;;;;;;12.15;8.80;;;;;;;9.62;67.16;99236.13;5058340;28;20078;-81
2023/03/06 11:01:19;;;;;;;14.80;8.73;;;;;;;9.67;68.02;99241.84;5055940;28;20130;-81
2023/03/06 11:03:45;;;;;;;12.43;8.68;;;;;;;9.67;68.82;99233.28;5053617;28;20099;-80
2023/03/06 11:06:15;;;;;;;10.45;7.28;;;;;;;9.66;66.39;99216.69;5053743;28;20374;-82
2023/03/06 11:08:42;;;;;;;10.95;7.75;;;;;;;9.58;65.79;99229.88;5057964;28;20025;-82
2023/03/06 11:11:13;;;;;;;12.73;9.00;;;;;;;9.52;66.70;99229.06;5055521;28;20052;-81
2023/03/06 11:13:41;;;;;;;13.05;8.43;;;;;;;9.54;69.17;99212.25;5054880;28;20021;-81
2023/03/06 11:16:21;;;;;;;12.23;8.60;;;;;;;9.85;69.38;99217.81;5053431;28;20043;-82
2023/03/06 11:19:05;;;;;;;12.00;7.85;;;;;;;10.02;64.71;99223.56;5053691;28;20082;-82
2023/03/06 11:21:33;;;;;;;13.35;8.15;;;;;;;9.81;60.37;99222.19;5054484;28;20025;-81
2023/03/06 11:24:16;;;;;;;12.40;8.85;;;;;;;9.65;61.24;99215.13;5054529;28;20074;-80